Time;durP1;ratioP1;P1;durP2;ratioP2;P2;SDS_P1;SDS_P2;PMS_P1;PMS_P2;Temp;Humidity;BMP_temperature;BMP_pressure;BME280_temperature;BME280_humidity;BME280_pressure;Samples;Min_cycle;Max_cycle;Signal;HPM_P1;HPM_P2
2022/05/18 00:02:24;;;;;;;4.03;2.25;;;25.50;43.30;;;;;;7717464;23;20031;-78
2022/05/18 00:05:25;;;;;;;6.65;2.38;;;25.50;42.70;;;;;;7689969;23;20020;-76
2022/05/18 00:08:27;;;;;;;7.00;2.60;;;25.50;42.90;;;;;;7685901;23;20031;-75
2022/05/18 00:11:30;;;;;;;6.65;3.35;;;25.40;43.00;;;;;;7685248;23;20092;-76
2022/05/18 00:14:31;;;;;;;8.00;2.72;;;25.30;43.00;;;;;;7685892;23;20357;-75
2022/05/18 00:17:32;;;;;;;6.35;2.90;;;25.30;43.10;;;;;;7712831;23;20435;-76
2022/05/18 00:20:33;;;;;;;6.75;2.97;;;25.30;43.30;;;;;;7711829;23;20024;-75
2022/05/18 00:23:35;;;;;;;6.30;2.58;;;25.30;43.40;;;;;;7686238;23;20020;-76
2022/05/18 00:26:35;;;;;;;7.28;2.40;;;25.20;43.60;;;;;;7712684;23;20428;-75
2022/05/18 00:29:36;;;;;;;7.32;2.70;;;25.20;43.70;;;;;;7686546;23;20025;-75
2022/05/18 00:32:37;;;;;;;7.97;2.70;;;25.20;43.70;;;;;;7712331;23;20016;-75
2022/05/18 00:35:39;;;;;;;7.65;2.97;;;25.10;43.60;;;;;;7711511;23;20023;-75
2022/05/18 00:38:40;;;;;;;7.32;2.83;;;25.20;43.60;;;;;;7686285;23;20036;-75
2022/05/18 00:41:41;;;;;;;6.07;2.83;;;25.20;43.60;;;;;;7687057;23;20155;-75
2022/05/18 00:44:42;;;;;;;4.68;2.50;;;25.20;43.70;;;;;;7686664;23;20469;-75
2022/05/18 00:47:43;;;;;;;6.88;3.08;;;25.10;43.60;;;;;;7691142;23;20012;-75
2022/05/18 00:50:45;;;;;;;5.68;2.47;;;25.10;43.70;;;;;;7717825;23;20017;-76
2022/05/18 00:53:54;;;;;;;10.57;2.90;;;25.10;43.80;;;;;;7694694;23;20019;-77
2022/05/18 00:57:08;;;;;;;3.90;2.17;;;25.10;44.00;;;;;;7690993;23;20427;-76
2022/05/18 01:00:13;;;;;;;8.52;2.80;;;25.10;44.10;;;;;;7665825;23;20024;-76
2022/05/18 01:03:22;;;;;;;6.78;2.63;;;25.10;44.10;;;;;;7716123;23;20344;-76
2022/05/18 01:06:51;;;;;;;8.85;2.72;;;25.00;44.10;;;;;;7690483;23;20016;-76
2022/05/18 01:09:52;;;;;;;11.55;2.70;;;24.90;44.10;;;;;;7687551;23;20106;-76
2022/05/18 01:12:53;;;;;;;3.85;2.35;;;25.00;44.10;;;;;;7687392;23;20016;-76
2022/05/18 01:15:55;;;;;;;6.60;2.50;;;25.00;44.10;;;;;;7687914;23;20032;-76
2022/05/18 01:18:57;;;;;;;4.53;2.72;;;25.00;44.20;;;;;;7713379;23;20017;-76
2022/05/18 01:22:09;;;;;;;5.55;2.50;;;24.90;44.50;;;;;;7687926;23;20016;-76
2022/05/18 01:25:31;;;;;;;6.53;2.85;;;24.90;44.80;;;;;;7686709;23;20020;-76
2022/05/18 01:28:39;;;;;;;4.10;2.75;;;24.90;44.90;;;;;;7710693;23;20031;-76
2022/05/18 01:31:57;;;;;;;8.95;3.03;;;24.90;44.90;;;;;;7686081;23;20074;-77
2022/05/18 01:34:57;;;;;;;5.22;2.85;;;24.80;44.90;;;;;;7712206;23;20477;-76
2022/05/18 01:37:59;;;;;;;7.00;3.22;;;24.80;44.90;;;;;;7685820;23;20027;-76
2022/05/18 01:41:17;;;;;;;5.60;2.80;;;24.70;45.00;;;;;;7684214;23;20020;-74
2022/05/18 01:44:18;;;;;;;8.93;3.30;;;24.70;45.10;;;;;;7711703;23;20024;-74
2022/05/18 01:47:19;;;;;;;10.68;2.90;;;24.60;45.10;;;;;;7712396;23;20654;-75
2022/05/18 01:50:26;;;;;;;7.68;2.92;;;24.60;45.10;;;;;;7684182;23;20028;-77
2022/05/18 01:53:28;;;;;;;7.70;3.20;;;24.50;45.10;;;;;;7685105;23;20037;-76
2022/05/18 01:56:29;;;;;;;5.00;2.70;;;24.40;45.20;;;;;;7671974;23;20074;-75
2022/05/18 01:59:32;;;;;;;4.28;2.35;;;24.40;45.40;;;;;;7710867;23;20118;-77
2022/05/18 02:02:34;;;;;;;11.02;2.67;;;24.30;45.40;;;;;;7712307;23;20084;-75
2022/05/18 02:05:36;;;;;;;6.80;2.88;;;24.30;45.50;;;;;;7662338;23;20295;-74
2022/05/18 02:08:37;;;;;;;7.47;2.70;;;24.30;45.60;;;;;;7712621;23;20486;-75
2022/05/18 02:11:38;;;;;;;7.00;2.80;;;24.20;45.70;;;;;;7713401;23;20079;-74
2022/05/18 02:14:39;;;;;;;5.72;2.55;;;24.20;45.90;;;;;;7713099;23;20012;-75
2022/05/18 02:17:41;;;;;;;6.85;2.78;;;24.10;46.00;;;;;;7713102;23;20055;-74
2022/05/18 02:20:42;;;;;;;6.72;2.42;;;24.10;46.20;;;;;;7713028;23;20023;-75
2022/05/18 02:23:44;;;;;;;9.65;3.45;;;24.00;46.40;;;;;;7712665;23;20036;-76
2022/05/18 02:26:44;;;;;;;3.00;2.65;;;23.90;46.60;;;;;;7713539;23;20019;-76
2022/05/18 02:29:45;;;;;;;12.77;2.53;;;23.90;46.80;;;;;;7672866;23;20025;-75
2022/05/18 02:32:46;;;;;;;4.25;2.83;;;23.90;47.00;;;;;;7686626;23;20055;-76
2022/05/18 02:35:47;;;;;;;4.25;2.60;;;23.80;47.20;;;;;;7717258;23;20326;-77
2022/05/18 02:38:48;;;;;;;8.63;3.28;;;23.80;47.30;;;;;;7694201;23;20009;-76
2022/05/18 02:41:50;;;;;;;10.20;3.05;;;23.80;47.40;;;;;;7707079;23;20023;-76
2022/05/18 02:44:51;;;;;;;5.20;3.10;;;23.80;47.60;;;;;;7668812;23;20091;-76
2022/05/18 02:47:53;;;;;;;8.75;3.10;;;23.70;47.60;;;;;;7714343;23;20031;-76
2022/05/18 02:50:55;;;;;;;7.88;3.20;;;23.70;47.70;;;;;;7685986;23;20458;-76
2022/05/18 02:53:57;;;;;;;4.65;2.55;;;23.70;47.80;;;;;;7715851;23;20412;-75
2022/05/18 02:56:58;;;;;;;8.90;3.30;;;23.60;47.80;;;;;;7714000;23;20024;-77
2022/05/18 02:59:59;;;;;;;11.88;3.65;;;23.70;48.00;;;;;;7709179;23;20034;-75
2022/05/18 03:03:00;;;;;;;13.43;3.15;;;23.70;48.00;;;;;;7685590;23;20068;-77
2022/05/18 03:06:03;;;;;;;7.35;3.38;;;23.70;48.10;;;;;;7712973;23;20136;-76
2022/05/18 03:09:04;;;;;;;9.15;3.30;;;23.70;48.10;;;;;;7686608;23;20055;-77
2022/05/18 03:12:06;;;;;;;4.97;2.65;;;23.70;48.20;;;;;;7713010;23;20408;-75
2022/05/18 03:15:07;;;;;;;8.27;3.38;;;23.60;48.20;;;;;;7711071;23;20372;-74
2022/05/18 03:18:08;;;;;;;6.20;2.75;;;23.60;48.30;;;;;;7685988;23;20428;-74
2022/05/18 03:24:29;;;;;;;6.55;3.30;;;23.60;48.50;;;;;;7711029;23;20012;-75
2022/05/18 03:27:30;;;;;;;7.85;3.10;;;23.50;48.60;;;;;;7711033;23;20031;-77
2022/05/18 03:30:31;;;;;;;10.65;3.95;;;23.50;48.80;;;;;;7711512;23;20020;-75
2022/05/18 03:33:33;;;;;;;5.07;3.13;;;23.50;48.80;;;;;;7685832;23;20016;-75
2022/05/18 03:36:34;;;;;;;10.02;3.30;;;23.50;48.80;;;;;;7712049;23;20268;-75
2022/05/18 03:39:35;;;;;;;10.85;3.15;;;23.50;48.80;;;;;;7685359;23;20412;-75
2022/05/18 03:42:36;;;;;;;10.60;3.30;;;23.50;48.70;;;;;;7661210;23;20012;-75
2022/05/18 03:45:37;;;;;;;9.52;3.35;;;23.50;48.70;;;;;;7685725;23;20027;-75
2022/05/18 03:48:39;;;;;;;7.03;3.38;;;23.40;48.70;;;;;;7710612;23;20051;-75
2022/05/18 03:51:40;;;;;;;11.38;3.53;;;23.40;48.70;;;;;;7712315;23;20258;-74
2022/05/18 03:54:41;;;;;;;8.02;3.45;;;23.40;48.90;;;;;;7685407;23;20015;-75
2022/05/18 03:57:42;;;;;;;9.05;3.35;;;23.30;49.00;;;;;;7685814;23;20009;-75
2022/05/18 04:00:46;;;;;;;6.38;3.72;;;23.20;49.20;;;;;;7685764;23;20091;-75
2022/05/18 04:03:47;;;;;;;9.63;2.97;;;23.10;49.40;;;;;;7709680;23;20012;-75
2022/05/18 04:06:48;;;;;;;7.57;3.45;;;23.10;49.60;;;;;;7685867;23;20012;-74
2022/05/18 04:09:49;;;;;;;8.73;3.50;;;23.00;49.80;;;;;;7660213;23;20016;-76
2022/05/18 04:12:50;;;;;;;8.77;3.78;;;22.90;49.90;;;;;;7685481;23;20023;-76
2022/05/18 04:15:52;;;;;;;6.10;3.60;;;22.80;50.00;;;;;;7711373;23;20024;-76
2022/05/18 04:18:53;;;;;;;11.48;3.42;;;22.80;50.10;;;;;;7685263;23;20017;-76
2022/05/18 04:21:53;;;;;;;10.00;4.10;;;22.80;50.20;;;;;;7685620;23;20323;-76
2022/05/18 04:24:54;;;;;;;12.85;3.35;;;22.80;50.20;;;;;;7660445;23;20043;-76
2022/05/18 04:27:56;;;;;;;8.93;3.80;;;22.70;50.20;;;;;;7686349;23;20064;-76
2022/05/18 04:30:57;;;;;;;4.97;3.30;;;22.70;50.20;;;;;;7687491;23;20020;-76
2022/05/18 04:33:57;;;;;;;10.55;3.88;;;22.70;50.20;;;;;;7662762;23;20359;-76
2022/05/18 04:36:58;;;;;;;12.35;3.40;;;22.70;50.20;;;;;;7687988;23;20428;-76
2022/05/18 04:39:59;;;;;;;7.15;3.35;;;22.80;50.30;;;;;;7687697;23;20031;-75
2022/05/18 04:43:00;;;;;;;16.00;4.28;;;22.80;50.20;;;;;;7712738;23;20019;-76
2022/05/18 04:46:01;;;;;;;9.13;4.22;;;22.80;50.10;;;;;;7688302;23;20119;-76
2022/05/18 04:49:02;;;;;;;9.98;4.68;;;22.80;50.10;;;;;;7713666;23;20025;-75
2022/05/18 04:52:07;;;;;;;11.15;4.90;;;22.90;50.10;;;;;;7686170;23;20035;-76
2022/05/18 04:55:09;;;;;;;10.20;4.53;;;22.90;50.10;;;;;;7687648;23;20012;-71
2022/05/18 04:58:10;;;;;;;10.68;4.80;;;22.90;50.10;;;;;;7688005;23;20021;-72
2022/05/18 05:01:11;;;;;;;11.45;4.80;;;22.90;50.10;;;;;;7714055;23;20020;-72
2022/05/18 05:04:13;;;;;;;13.20;4.50;;;22.90;50.00;;;;;;7686783;23;20012;-72
2022/05/18 05:07:14;;;;;;;12.48;5.15;;;22.90;50.00;;;;;;7687140;23;20029;-71
2022/05/18 05:10:16;;;;;;;16.05;5.07;;;22.90;50.00;;;;;;7687353;23;20036;-72
2022/05/18 05:17:38;;;;;;;10.90;5.25;;;22.90;50.10;;;;;;7715275;23;20013;-71
2022/05/18 05:20:39;;;;;;;19.70;5.82;;;22.90;50.10;;;;;;7716325;23;20020;-73
2022/05/18 05:23:40;;;;;;;14.73;5.40;;;22.90;50.20;;;;;;7716251;23;20315;-71
2022/05/18 05:26:42;;;;;;;17.77;5.10;;;23.00;50.20;;;;;;7716488;23;20023;-72
2022/05/18 05:29:43;;;;;;;12.85;6.03;;;23.00;50.10;;;;;;7664391;23;20750;-72
2022/05/18 05:32:44;;;;;;;15.18;5.18;;;23.10;50.20;;;;;;7716062;23;20013;-70
2022/05/18 05:35:45;;;;;;;11.25;5.05;;;23.10;50.30;;;;;;7709617;23;20439;-71
2022/05/18 05:38:46;;;;;;;11.65;4.50;;;23.10;50.90;;;;;;7715518;23;20024;-69
2022/05/18 05:41:47;;;;;;;15.55;4.55;;;23.10;50.30;;;;;;7664941;23;20013;-69
2022/05/18 05:44:47;;;;;;;12.93;4.47;;;23.10;50.30;;;;;;7714088;23;20013;-70
2022/05/18 05:47:48;;;;;;;9.82;5.10;;;23.10;50.30;;;;;;7689530;23;20066;-70
2022/05/18 05:50:49;;;;;;;9.98;5.40;;;23.20;50.20;;;;;;7664288;23;20016;-71
2022/05/18 05:53:51;;;;;;;13.95;5.70;;;23.20;50.10;;;;;;7688802;23;20017;-71
2022/05/18 05:56:53;;;;;;;17.75;5.75;;;23.30;50.00;;;;;;7687403;23;20012;-72
2022/05/18 05:59:54;;;;;;;13.45;5.28;;;23.30;49.80;;;;;;7690172;23;20024;-70
2022/05/18 06:02:54;;;;;;;16.02;5.78;;;23.30;49.70;;;;;;7689317;23;20016;-70
2022/05/18 06:05:56;;;;;;;20.45;6.57;;;23.30;49.60;;;;;;7689280;23;20100;-69
2022/05/18 06:08:57;;;;;;;16.80;6.63;;;23.40;49.50;;;;;;7715722;23;20031;-70
2022/05/18 06:11:58;;;;;;;27.40;7.22;;;23.50;49.40;;;;;;7689651;23;20025;-70
2022/05/18 06:15:00;;;;;;;15.95;5.78;;;23.50;49.30;;;;;;7689962;23;20013;-70
2022/05/18 06:18:01;;;;;;;17.60;5.05;;;23.60;49.30;;;;;;7716141;23;20009;-69
2022/05/18 06:21:03;;;;;;;16.20;4.80;;;23.70;49.30;;;;;;7689208;23;20435;-69
2022/05/18 06:24:04;;;;;;;16.85;6.45;;;23.70;49.30;;;;;;7715040;23;20426;-69
2022/05/18 06:27:05;;;;;;;16.42;5.00;;;23.80;49.20;;;;;;7689555;23;20320;-67
2022/05/18 06:30:07;;;;;;;14.35;4.20;;;23.90;49.10;;;;;;7663013;23;20040;-68
2022/05/18 06:33:09;;;;;;;8.25;4.15;;;24.00;49.10;;;;;;7714297;23;20013;-70
2022/05/18 06:36:11;;;;;;;11.20;4.00;;;24.00;48.90;;;;;;7687472;23;20380;-69
2022/05/18 06:39:11;;;;;;;10.50;3.38;;;24.10;48.70;;;;;;7689677;23;20022;-70
2022/05/18 06:42:12;;;;;;;12.35;3.83;;;24.30;48.50;;;;;;7715394;23;20012;-70
2022/05/18 06:45:17;;;;;;;10.52;4.35;;;24.30;48.20;;;;;;7665480;23;20064;-70
2022/05/18 06:48:18;;;;;;;9.98;4.03;;;24.40;48.10;;;;;;7689256;23;20392;-69
2022/05/18 06:51:22;;;;;;;12.75;3.63;;;24.50;48.10;;;;;;7688419;23;20016;-68
2022/05/18 06:54:23;;;;;;;11.20;3.85;;;24.60;47.90;;;;;;7714293;23;20324;-69
2022/05/18 06:57:24;;;;;;;11.07;3.42;;;24.70;47.60;;;;;;7689364;23;20013;-69
2022/05/18 07:00:25;;;;;;;5.97;3.40;;;24.80;47.30;;;;;;7715676;23;20016;-69
2022/05/18 07:03:27;;;;;;;16.80;3.65;;;25.00;47.00;;;;;;7688834;23;20015;-69
2022/05/18 07:06:31;;;;;;;5.13;2.83;;;25.10;46.70;;;;;;7689282;23;20051;-68
2022/05/18 07:09:33;;;;;;;7.07;3.13;;;25.30;46.20;;;;;;7689137;23;20031;-70
2022/05/18 07:12:37;;;;;;;9.25;2.88;;;25.40;45.80;;;;;;7689602;23;20012;-68
2022/05/18 07:15:38;;;;;;;8.55;3.08;;;25.50;45.70;;;;;;7689415;23;20403;-69
2022/05/18 07:18:41;;;;;;;10.35;3.30;;;25.60;45.30;;;;;;7664038;23;20096;-69
2022/05/18 07:21:42;;;;;;;10.88;3.17;;;25.80;45.20;;;;;;7664519;23;20017;-69
2022/05/18 07:24:43;;;;;;;8.20;2.65;;;25.90;44.80;;;;;;7689385;23;20360;-69
2022/05/18 07:27:44;;;;;;;10.70;3.53;;;26.00;44.30;;;;;;7689091;23;20055;-69
2022/05/18 07:30:46;;;;;;;5.68;2.83;;;26.10;44.00;;;;;;7715168;23;20155;-70
2022/05/18 07:33:47;;;;;;;9.85;3.70;;;26.20;43.60;;;;;;7689005;23;20418;-69
2022/05/18 07:36:53;;;;;;;11.65;3.15;;;26.30;44.10;;;;;;7715131;23;20475;-69
2022/05/18 07:39:54;;;;;;;10.27;3.40;;;26.40;43.10;;;;;;7688393;23;20063;-68
2022/05/18 07:42:56;;;;;;;6.22;3.13;;;26.50;42.70;;;;;;7688948;23;20353;-69
2022/05/18 07:45:57;;;;;;;7.05;3.40;;;26.60;42.20;;;;;;7715080;23;20036;-68
2022/05/18 07:48:58;;;;;;;8.73;2.88;;;26.60;41.90;;;;;;7715267;23;20039;-70
2022/05/18 07:51:59;;;;;;;4.40;2.97;;;26.60;41.70;;;;;;7714945;23;20012;-70
2022/05/18 07:55:00;;;;;;;7.55;3.40;;;26.80;41.50;;;;;;7689306;23;20312;-69
2022/05/18 07:58:06;;;;;;;9.30;3.65;;;26.90;41.50;;;;;;7688728;23;20087;-69
2022/05/18 08:01:10;;;;;;;13.30;3.10;;;27.00;41.30;;;;;;7688190;23;20454;-69
2022/05/18 08:04:10;;;;;;;5.40;2.83;;;27.10;40.90;;;;;;7688095;23;20020;-69
2022/05/18 08:07:11;;;;;;;10.13;2.88;;;27.20;40.80;;;;;;7688527;23;20016;-69
2022/05/18 08:16:54;;;;;;;5.93;3.00;;;27.40;40.40;;;;;;7713486;23;20023;-68
2022/05/18 08:19:55;;;;;;;8.30;3.13;;;27.60;40.30;;;;;;7711751;23;20012;-68
2022/05/18 08:22:55;;;;;;;12.43;2.72;;;27.70;40.40;;;;;;7660690;23;20020;-71
2022/05/18 08:25:57;;;;;;;10.30;3.83;;;27.80;40.30;;;;;;7711387;23;20070;-69
2022/05/18 08:29:00;;;;;;;10.55;2.95;;;27.90;40.10;;;;;;7711437;23;20048;-69
2022/05/18 08:32:01;;;;;;;13.57;3.50;;;28.00;40.10;;;;;;7684792;23;20420;-70
2022/05/18 08:35:03;;;;;;;8.40;2.97;;;28.10;40.00;;;;;;7683405;23;20023;-68
2022/05/18 08:38:04;;;;;;;9.38;3.03;;;28.20;39.50;;;;;;7709124;23;20019;-68
2022/05/18 08:41:20;;;;;;;16.98;3.30;;;28.30;39.40;;;;;;7709687;23;20012;-69
2022/05/18 08:44:26;;;;;;;7.00;2.97;;;28.30;39.50;;;;;;7684483;23;20476;-70
2022/05/18 08:47:42;;;;;;;9.00;3.35;;;28.40;39.50;;;;;;7710430;23;20016;-69
2022/05/18 08:50:43;;;;;;;13.55;4.85;;;28.50;39.40;;;;;;7683624;23;20021;-69
2022/05/18 08:53:55;;;;;;;10.30;3.60;;;28.60;39.30;;;;;;7684431;23;20092;-69
2022/05/18 08:56:58;;;;;;;9.20;4.00;;;28.70;39.30;;;;;;7683916;23;20087;-69
2022/05/18 09:00:14;;;;;;;9.63;3.35;;;28.80;39.10;;;;;;7710471;23;20012;-69
2022/05/18 09:03:28;;;;;;;7.95;2.88;;;29.00;38.90;;;;;;7683756;23;20379;-69
2022/05/18 09:06:52;;;;;;;14.27;3.75;;;29.10;38.40;;;;;;7710338;23;20097;-70
2022/05/18 09:10:13;;;;;;;12.65;3.67;;;29.20;38.20;;;;;;7710055;23;20335;-68
2022/05/18 09:13:14;;;;;;;9.00;3.33;;;29.20;38.00;;;;;;7683661;23;20027;-68
2022/05/18 09:16:47;;;;;;;5.65;3.30;;;29.30;38.00;;;;;;7685942;23;20020;-68
2022/05/18 09:20:12;;;;;;;9.73;3.00;;;29.40;38.80;;;;;;7660900;23;1218773;-69
2022/05/18 09:23:19;;;;;;;10.38;3.22;;;29.50;37.80;;;;;;7660001;23;20013;-70
2022/05/18 09:26:40;;;;;;;10.13;4.68;;;29.50;37.60;;;;;;7686490;23;20021;-70
2022/05/18 09:30:04;;;;;;;12.15;3.95;;;29.60;37.50;;;;;;7684861;23;20031;-69
2022/05/18 09:33:14;;;;;;;7.00;3.58;;;29.70;37.10;;;;;;7685934;23;20320;-70
2022/05/18 09:36:39;;;;;;;11.15;4.68;;;29.80;37.00;;;;;;7686743;23;20020;-69
2022/05/18 09:39:46;;;;;;;22.63;3.95;;;29.90;37.00;;;;;;7663337;23;20016;-69
2022/05/18 09:43:10;;;;;;;10.93;3.28;;;29.90;36.80;;;;;;7662995;23;20292;-69
2022/05/18 09:46:16;;;;;;;8.20;3.40;;;30.10;36.70;;;;;;7713928;23;20023;-69
2022/05/18 09:49:35;;;;;;;6.72;3.38;;;30.20;36.40;;;;;;7713826;23;20623;-70
2022/05/18 09:52:40;;;;;;;8.18;3.00;;;30.20;36.10;;;;;;7684940;23;20066;-69
2022/05/18 09:55:44;;;;;;;9.27;3.47;;;30.10;35.80;;;;;;7686252;23;20023;-68
2022/05/18 09:58:47;;;;;;;7.40;3.03;;;30.10;35.70;;;;;;7712145;23;20424;-69
2022/05/18 10:08:45;;;;;;;8.73;3.00;;;30.20;35.80;;;;;;7708220;23;20103;-69
2022/05/18 10:11:46;;;;;;;12.73;3.35;;;30.30;35.70;;;;;;7660564;23;20016;-68
2022/05/18 10:14:50;;;;;;;7.95;3.10;;;30.40;35.50;;;;;;7671603;23;20063;-69
2022/05/18 10:18:23;;;;;;;5.57;2.92;;;30.50;35.30;;;;;;7711730;23;20367;-69
2022/05/18 10:21:50;;;;;;;10.27;2.95;;;30.60;35.20;;;;;;7630619;23;20029;-70
2022/05/18 10:24:57;;;;;;;9.35;2.83;;;30.70;35.10;;;;;;7645373;23;20025;-69
2022/05/18 10:28:01;;;;;;;7.35;2.55;;;30.80;34.80;;;;;;7646690;23;20036;-69
2022/05/18 10:31:05;;;;;;;7.40;2.83;;;31.00;34.80;;;;;;7671697;23;20021;-68
2022/05/18 10:34:18;;;;;;;4.13;2.47;;;31.10;34.60;;;;;;7646739;23;20316;-70
2022/05/18 10:37:35;;;;;;;10.05;3.40;;;31.20;34.40;;;;;;7704988;23;20711;-69
2022/05/18 10:40:36;;;;;;;10.02;2.88;;;31.30;34.10;;;;;;7665207;23;20012;-69
2022/05/18 10:43:59;;;;;;;6.40;2.65;;;31.30;33.90;;;;;;7682301;23;20020;-69
2022/05/18 10:47:20;;;;;;;6.20;2.72;;;31.20;33.90;;;;;;7679982;23;20020;-69
2022/05/18 10:50:23;;;;;;;8.82;3.20;;;31.30;34.00;;;;;;7656049;23;20021;-69
2022/05/18 10:53:37;;;;;;;7.78;2.50;;;31.30;33.90;;;;;;7657165;23;20040;-69
2022/05/18 10:56:38;;;;;;;8.50;2.67;;;31.60;33.70;;;;;;7641188;23;20059;-70
2022/05/18 10:59:49;;;;;;;5.45;2.80;;;32.20;32.90;;;;;;7707598;23;20339;-69
2022/05/18 11:03:18;;;;;;;6.88;2.53;;;33.00;31.70;;;;;;7682679;23;20016;-69
2022/05/18 11:06:28;;;;;;;10.77;2.97;;;33.90;30.70;;;;;;7682379;23;20091;-69
2022/05/18 11:09:32;;;;;;;3.63;2.10;;;34.70;29.80;;;;;;7683409;23;20090;-69
2022/05/18 11:12:51;;;;;;;7.38;2.97;;;35.40;29.00;;;;;;7710096;23;20400;-70
2022/05/18 11:16:23;;;;;;;9.85;2.88;;;35.90;28.40;;;;;;7658750;23;20040;-70
2022/05/18 11:19:41;;;;;;;9.80;2.72;;;36.60;28.00;;;;;;7693932;23;20321;-70
2022/05/18 11:23:19;;;;;;;11.98;2.97;;;37.20;27.50;;;;;;7679406;23;20013;-69
2022/05/18 11:26:29;;;;;;;9.23;2.70;;;37.70;26.90;;;;;;7679114;23;20082;-69
2022/05/18 11:29:57;;;;;;;6.47;2.58;;;38.30;26.40;;;;;;7657060;23;20317;-69
2022/05/18 11:33:11;;;;;;;5.90;2.50;;;38.30;26.10;;;;;;7705828;23;20008;-69
2022/05/18 11:36:30;;;;;;;6.20;2.42;;;38.40;26.00;;;;;;7657137;23;20367;-69
2022/05/18 11:40:04;;;;;;;10.23;2.13;;;38.50;26.00;;;;;;7656170;23;20041;-69
2022/05/18 11:43:28;;;;;;;6.93;2.30;;;38.90;25.80;;;;;;7635002;23;20052;-69
2022/05/18 11:46:53;;;;;;;7.82;1.90;;;39.20;25.40;;;;;;7681551;23;20275;-69
2022/05/18 11:50:02;;;;;;;9.27;2.58;;;39.30;24.80;;;;;;7684384;23;20090;-70
2022/05/18 11:53:22;;;;;;;4.18;2.83;;;39.40;24.80;;;;;;7710970;23;20012;-70
2022/05/18 11:56:38;;;;;;;5.97;1.90;;;39.60;24.60;;;;;;7683843;23;20428;-69
2022/05/18 12:00:12;;;;;;;3.80;2.03;;;39.70;24.20;;;;;;7710136;23;20016;-69
2022/05/18 12:03:43;;;;;;;4.07;2.30;;;39.90;23.90;;;;;;7631327;23;20344;-69
2022/05/18 12:07:03;;;;;;;1.85;1.70;;;40.10;23.70;;;;;;7708202;23;20013;-70
2022/05/18 12:10:13;;;;;;;6.38;1.90;;;40.30;23.20;;;;;;7709072;23;20423;-70
2022/05/18 12:13:20;;;;;;;4.75;2.03;;;40.50;22.80;;;;;;7668968;23;20155;-70
2022/05/18 12:16:33;;;;;;;8.20;2.65;;;40.50;22.70;;;;;;7672024;23;20021;-70
2022/05/18 12:19:52;;;;;;;4.88;2.20;;;40.50;22.80;;;;;;7709356;23;20024;-71
2022/05/18 12:23:02;;;;;;;4.40;2.10;;;40.70;22.70;;;;;;7671941;23;20009;-69
2022/05/18 12:26:03;;;;;;;8.55;2.75;;;41.00;22.50;;;;;;7672413;23;20017;-70
2022/05/18 12:29:06;;;;;;;6.43;2.15;;;41.20;22.20;;;;;;7647385;23;20316;-70
2022/05/18 12:32:10;;;;;;;11.13;2.42;;;41.50;22.00;;;;;;7670633;23;20017;-69
2022/05/18 12:35:36;;;;;;;7.63;2.22;;;41.70;21.80;;;;;;7674954;23;20017;-69
2022/05/18 12:38:56;;;;;;;8.02;2.00;;;42.20;21.60;;;;;;7658180;23;20439;-70
2022/05/18 12:41:59;;;;;;;8.95;2.20;;;42.60;21.20;;;;;;7672171;23;20083;-70
2022/05/18 12:45:26;;;;;;;8.57;2.05;;;43.00;20.90;;;;;;7671252;23;20025;-70
2022/05/18 12:48:44;;;;;;;3.20;1.80;;;43.20;20.70;;;;;;7627838;23;20031;-70
2022/05/18 12:52:03;;;;;;;8.07;2.28;;;43.50;20.40;;;;;;7673795;23;20071;-70
2022/05/18 12:55:17;;;;;;;11.95;2.42;;;43.60;20.30;;;;;;7648384;23;20017;-69
2022/05/18 12:58:29;;;;;;;4.93;2.38;;;43.80;20.20;;;;;;7648895;23;20083;-70
2022/05/18 13:01:34;;;;;;;14.70;2.72;;;44.20;20.10;;;;;;7649596;23;20304;-70
2022/05/18 13:04:39;;;;;;;5.47;1.95;;;44.60;19.70;;;;;;7683848;23;20100;-71
2022/05/18 13:07:41;;;;;;;7.80;2.33;;;45.00;19.60;;;;;;7713496;23;20396;-70
2022/05/18 13:11:10;;;;;;;6.72;2.08;;;45.60;19.40;;;;;;7712288;23;20027;-70
2022/05/18 13:14:25;;;;;;;7.30;2.15;;;46.10;19.00;;;;;;7671568;23;20013;-70
2022/05/18 13:17:48;;;;;;;5.70;1.92;;;46.30;18.70;;;;;;7673991;23;20009;-71
2022/05/18 13:20:59;;;;;;;11.10;2.15;;;46.60;18.50;;;;;;7683152;23;20040;-70
2022/05/18 13:24:13;;;;;;;9.05;2.15;;;46.60;18.30;;;;;;7685310;23;20028;-69
2022/05/18 13:27:29;;;;;;;3.92;2.05;;;46.90;18.40;;;;;;7711144;23;20029;-69
2022/05/18 13:30:45;;;;;;;4.28;1.83;;;47.40;18.00;;;;;;7710699;23;20024;-69
2022/05/18 13:34:10;;;;;;;5.45;1.88;;;48.00;17.70;;;;;;7670689;23;20021;-70
2022/05/18 13:37:12;;;;;;;5.05;2.20;;;48.50;17.40;;;;;;7674464;23;20031;-70
2022/05/18 13:40:13;;;;;;;4.75;2.38;;;48.80;17.10;;;;;;7674478;23;20024;-70
2022/05/18 13:43:18;;;;;;;9.93;2.13;;;48.80;16.90;;;;;;7674517;23;20103;-71
2022/05/18 13:46:24;;;;;;;7.38;2.08;;;48.80;16.90;;;;;;7649161;23;20072;-69
2022/05/18 13:49:28;;;;;;;5.95;2.08;;;49.00;16.60;;;;;;7674815;23;20087;-69
2022/05/18 13:52:33;;;;;;;7.18;1.98;;;49.10;16.60;;;;;;7676686;23;20021;-70
2022/05/18 13:55:40;;;;;;;3.22;1.90;;;48.80;16.60;;;;;;7674824;23;20467;-69
2022/05/18 13:58:44;;;;;;;;;;;48.20;16.80;;;;;;7675318;23;20031;-70
2022/05/18 14:01:48;;;;;;;2.42;1.70;;;47.90;17.00;;;;;;7675423;23;19915;-69
2022/05/18 14:04:58;;;;;;;3.80;1.85;;;47.80;17.00;;;;;;7674654;23;20005;-70
2022/05/18 14:08:22;;;;;;;4.15;1.92;;;47.80;17.10;;;;;;7651950;23;20093;-69
2022/05/18 14:11:26;;;;;;;3.97;2.00;;;47.80;17.10;;;;;;7670263;23;20020;-70
2022/05/18 14:14:31;;;;;;;5.85;2.15;;;47.90;17.10;;;;;;7673587;23;20278;-70
2022/05/18 14:17:37;;;;;;;5.28;1.77;;;48.30;16.90;;;;;;7672676;23;20023;-70
2022/05/18 14:21:11;;;;;;;6.22;1.92;;;48.60;16.70;;;;;;7697014;23;20036;-70
2022/05/18 14:24:21;;;;;;;3.60;1.70;;;48.70;16.60;;;;;;7711043;23;20012;-70
2022/05/18 14:27:45;;;;;;;5.65;1.90;;;48.70;16.60;;;;;;7686024;23;20016;-70
2022/05/18 14:30:46;;;;;;;5.28;1.70;;;48.40;16.70;;;;;;7684030;23;20335;-70
2022/05/18 14:33:56;;;;;;;3.75;1.85;;;48.20;16.70;;;;;;7685200;23;20435;-71
2022/05/18 14:36:58;;;;;;;6.32;1.85;;;47.90;16.80;;;;;;7711777;23;20019;-70
2022/05/18 14:40:01;;;;;;;8.27;2.13;;;47.70;16.90;;;;;;7711427;23;20308;-70
2022/05/18 14:43:03;;;;;;;3.95;2.10;;;47.60;16.90;;;;;;7660864;23;20013;-70
2022/05/18 14:46:25;;;;;;;5.82;2.05;;;47.60;17.00;;;;;;7661114;23;20012;-70
2022/05/18 14:49:35;;;;;;;5.22;1.70;;;47.50;17.00;;;;;;7700148;23;20053;-69
2022/05/18 14:52:41;;;;;;;5.68;1.70;;;47.30;17.10;;;;;;7683869;23;20016;-71
2022/05/18 14:56:00;;;;;;;4.22;2.42;;;46.60;17.40;;;;;;7657180;23;20016;-69
2022/05/18 14:59:02;;;;;;;5.38;1.98;;;45.30;18.10;;;;;;7683803;23;20013;-69
2022/05/18 15:02:07;;;;;;;6.03;2.25;;;44.00;18.80;;;;;;7683459;23;20031;-70
2022/05/18 15:05:10;;;;;;;6.95;1.80;;;43.00;19.60;;;;;;7683146;23;20323;-69
2022/05/18 15:08:35;;;;;;;9.27;2.15;;;42.10;20.40;;;;;;7683137;23;20583;-68
2022/05/18 15:11:42;;;;;;;1.90;1.70;;;41.40;21.10;;;;;;7682992;23;20105;-69
2022/05/18 15:15:01;;;;;;;4.15;2.00;;;40.80;21.80;;;;;;7682140;23;20021;-69
2022/05/18 15:18:16;;;;;;;3.15;1.60;;;40.30;22.10;;;;;;7679749;23;20023;-69
2022/05/18 15:21:35;;;;;;;3.70;2.17;;;40.90;21.70;;;;;;7669339;23;20029;-71
2022/05/18 15:24:36;;;;;;;3.65;1.90;;;41.80;20.90;;;;;;7695629;23;20051;-70
2022/05/18 15:27:38;;;;;;;3.13;1.67;;;42.80;20.10;;;;;;7621607;23;20009;-71
2022/05/18 15:30:51;;;;;;;3.08;1.70;;;43.50;19.40;;;;;;7670314;23;20368;-70
2022/05/18 15:33:55;;;;;;;4.50;1.80;;;43.90;19.00;;;;;;7655098;23;20447;-70
2022/05/18 15:36:56;;;;;;;9.68;1.80;;;44.00;18.70;;;;;;7670046;23;20016;-69
2022/05/18 15:39:58;;;;;;;4.10;1.90;;;43.90;18.80;;;;;;7662332;23;20021;-69
2022/05/18 15:42:59;;;;;;;3.65;1.80;;;43.90;18.90;;;;;;7670784;23;20163;-69
2022/05/18 15:46:03;;;;;;;5.40;1.83;;;43.90;18.60;;;;;;7680859;23;20293;-70
2022/05/18 15:49:07;;;;;;;9.93;2.97;;;43.60;18.70;;;;;;7681474;23;20033;-70
2022/05/18 15:52:12;;;;;;;5.55;1.95;;;43.20;19.00;;;;;;7707057;23;20434;-70
2022/05/18 15:55:16;;;;;;;3.75;1.83;;;42.90;19.20;;;;;;7681990;23;20031;-70
2022/05/18 15:58:17;;;;;;;3.03;1.75;;;42.90;19.30;;;;;;7656085;23;20016;-69
2022/05/18 16:01:19;;;;;;;4.47;1.85;;;43.00;19.20;;;;;;7681383;23;20025;-69
2022/05/18 16:04:19;;;;;;;5.57;2.00;;;42.80;19.40;;;;;;7707565;23;20021;-69
2022/05/18 16:07:21;;;;;;;6.93;1.88;;;42.60;19.60;;;;;;7680836;23;20027;-69
2022/05/18 16:10:22;;;;;;;5.85;1.88;;;42.60;19.70;;;;;;7681147;23;20124;-70
2022/05/18 16:13:31;;;;;;;7.38;1.98;;;42.40;19.70;;;;;;7708130;23;20173;-70
2022/05/18 16:16:35;;;;;;;3.95;1.58;;;42.50;19.70;;;;;;7681537;23;20409;-69
2022/05/18 16:19:38;;;;;;;6.60;1.95;;;42.60;19.50;;;;;;7655964;23;20020;-69
2022/05/18 16:22:40;;;;;;;5.15;2.00;;;42.60;19.50;;;;;;7692745;23;20319;-70
2022/05/18 16:25:42;;;;;;;5.80;1.58;;;42.40;19.60;;;;;;7682995;23;20019;-70
2022/05/18 16:28:44;;;;;;;4.47;1.80;;;42.30;19.70;;;;;;7684959;23;20020;-68